Terminal Aerodrome Forecast
Issued by NWS

Home | Current Version | Previous Version | Text Only | Print | Product List | Glossary On
Versions: 1 2 3 4 5 6 7 8 9 10 11 12 13 14 15 16 17 18 19 20 21 22
000
FTUS43 KGRB 180212 AAA
TAFAUW
TAF AMD
KAUW 180212Z 1802/1824 17004KT 3SM -DZ BR OVC007
     FM180300 VRB03KT 3SM -DZ BR OVC004
     FM180600 35005KT 5SM BR VCSH OVC005
     FM181400 34010G16KT P6SM SCT008 BKN025
     FM181700 33014G23KT P6SM SCT025 BKN040=

USA.gov is the U.S. government's official web portal to all federal, state and local government web resources and services.